createdAt,value
2023-04-16T00:00:21.011Z,12.45
2023-04-16T00:02:49.144Z,13.35
2023-04-16T00:05:17.350Z,13.52
2023-04-16T00:07:46.901Z,13.25
2023-04-16T00:10:15.372Z,14.90
2023-04-16T00:12:43.434Z,10.75
2023-04-16T00:15:11.887Z,16.92
2023-04-16T00:17:39.933Z,24.10
2023-04-16T00:20:10.060Z,25.42
2023-04-16T00:22:38.172Z,13.50
2023-04-16T00:25:08.219Z,15.30
2023-04-16T00:27:36.341Z,17.48
2023-04-16T00:30:04.520Z,12.63
2023-04-16T00:32:32.576Z,16.05
2023-04-16T00:35:00.620Z,14.68
2023-04-16T00:37:28.693Z,11.73
2023-04-16T00:39:56.770Z,12.38
2023-04-16T00:42:26.459Z,13.88
2023-04-16T00:44:54.539Z,13.95
2023-04-16T00:47:22.627Z,14.40
2023-04-16T00:49:50.754Z,15.80
2023-04-16T00:52:18.818Z,14.05
2023-04-16T00:54:47.198Z,13.93
2023-04-16T00:57:15.340Z,13.82
2023-04-16T00:59:44.852Z,14.25
2023-04-16T01:02:13.090Z,13.93
2023-04-16T01:04:41.402Z,13.80
2023-04-16T01:07:09.475Z,14.63
2023-04-16T01:09:37.569Z,21.67
2023-04-16T01:12:05.743Z,15.35
2023-04-16T01:14:36.564Z,17.80
2023-04-16T01:17:06.057Z,14.80
2023-04-16T01:19:36.347Z,15.45
2023-04-16T01:22:05.954Z,18.45
2023-04-16T01:24:35.026Z,19.30
2023-04-16T01:27:03.125Z,14.57
2023-04-16T01:29:31.339Z,16.20
2023-04-16T01:31:59.379Z,21.00
2023-04-16T01:34:27.440Z,16.50
2023-04-16T01:36:55.606Z,18.33
2023-04-16T01:39:25.115Z,16.25
2023-04-16T01:41:53.209Z,20.35
2023-04-16T01:44:21.885Z,18.85
2023-04-16T01:46:50.018Z,18.33
2023-04-16T01:49:18.186Z,18.58
2023-04-16T01:51:46.269Z,21.80
2023-04-16T01:54:14.356Z,19.15
2023-04-16T01:56:43.897Z,21.83
2023-04-16T01:59:12.428Z,19.48
2023-04-16T02:01:40.631Z,19.40
2023-04-16T02:04:08.748Z,20.40
2023-04-16T02:06:36.790Z,23.42
2023-04-16T02:09:05.070Z,21.92
2023-04-16T02:11:33.181Z,19.25
2023-04-16T02:14:02.781Z,22.08
2023-04-16T02:16:31.213Z,20.05
2023-04-16T02:18:59.439Z,20.50
2023-04-16T02:21:27.570Z,22.42
2023-04-16T02:23:55.743Z,20.02
2023-04-16T02:26:23.802Z,22.15
2023-04-16T02:28:51.983Z,20.10
2023-04-16T02:31:22.807Z,20.85
2023-04-16T02:33:50.936Z,20.73
2023-04-16T02:36:19.016Z,23.85
2023-04-16T02:38:47.063Z,21.67
2023-04-16T02:41:15.176Z,22.02
2023-04-16T02:43:43.312Z,22.05
2023-04-16T02:46:11.502Z,21.65
2023-04-16T02:48:41.188Z,21.65
2023-04-16T02:51:09.289Z,21.35
2023-04-16T02:53:37.374Z,21.73
2023-04-16T02:56:06.070Z,20.73
2023-04-16T02:58:34.158Z,26.63
2023-04-16T03:01:02.327Z,23.88
2023-04-16T03:03:30.480Z,26.20
2023-04-16T03:05:59.957Z,24.33
2023-04-16T03:08:28.143Z,28.40
2023-04-16T03:10:56.347Z,28.17
2023-04-16T03:13:24.373Z,26.27
2023-04-16T03:15:52.509Z,27.15
2023-04-16T03:18:20.678Z,27.52
2023-04-16T03:20:53.160Z,26.40
2023-04-16T03:23:22.580Z,27.92
2023-04-16T03:25:51.165Z,28.67
2023-04-16T03:28:19.211Z,28.17
2023-04-16T03:30:52.520Z,26.42
2023-04-16T03:33:20.747Z,29.85
2023-04-16T03:35:48.910Z,27.67
2023-04-16T03:38:16.972Z,26.48
2023-04-16T03:40:46.790Z,27.75
2023-04-16T03:43:14.841Z,28.70
2023-04-16T03:45:45.955Z,29.83
2023-04-16T03:48:14.039Z,32.20
2023-04-16T03:50:42.063Z,28.17
2023-04-16T03:53:10.098Z,29.80
2023-04-16T03:55:38.163Z,27.15
2023-04-16T03:58:07.568Z,25.85
2023-04-16T04:00:35.705Z,32.65
2023-04-16T04:03:04.128Z,26.92
2023-04-16T04:05:32.375Z,26.00
2023-04-16T04:08:00.451Z,27.70
2023-04-16T04:10:28.517Z,29.75
2023-04-16T04:12:56.557Z,23.52
2023-04-16T04:15:25.948Z,28.30
2023-04-16T04:17:54.080Z,24.67
2023-04-16T04:20:22.164Z,27.92
2023-04-16T04:22:50.859Z,26.55
2023-04-16T04:25:19.086Z,28.50
2023-04-16T04:27:47.194Z,31.23
2023-04-16T04:30:15.519Z,25.60
2023-04-16T04:32:44.934Z,29.20
2023-04-16T04:35:13.046Z,26.00
2023-04-16T04:37:41.146Z,28.77
2023-04-16T04:40:10.583Z,28.70
2023-04-16T04:42:39.243Z,30.13
2023-04-16T04:45:08.580Z,23.83
2023-04-16T04:47:36.669Z,27.73
2023-04-16T04:50:07.190Z,28.67
2023-04-16T04:52:35.268Z,28.02
2023-04-16T04:55:03.396Z,31.63
2023-04-16T04:57:31.544Z,26.23
2023-04-16T04:59:59.658Z,28.73
2023-04-16T05:02:27.885Z,28.02
2023-04-16T05:04:56.119Z,27.52
2023-04-16T05:07:25.632Z,28.50
2023-04-16T05:09:53.710Z,27.85
2023-04-16T05:12:21.711Z,28.65
2023-04-16T05:14:49.782Z,29.13
2023-04-16T05:17:18.058Z,30.10
2023-04-16T05:19:46.195Z,30.52
2023-04-16T05:22:14.261Z,28.48
2023-04-16T05:24:43.817Z,27.38
2023-04-16T05:27:11.916Z,28.15
2023-04-16T05:29:40.029Z,27.52
2023-04-16T05:32:08.267Z,27.25
2023-04-16T05:34:39.144Z,30.25
2023-04-16T05:37:07.312Z,31.35
2023-04-16T05:39:36.949Z,32.03
2023-04-16T05:42:06.539Z,31.83
2023-04-16T05:44:35.098Z,30.10
2023-04-16T05:47:03.141Z,29.40
2023-04-16T05:49:31.307Z,33.25
2023-04-16T05:52:00.021Z,29.50
2023-04-16T05:54:30.160Z,25.88
2023-04-16T05:56:59.215Z,28.23
2023-04-16T05:59:29.348Z,28.38
2023-04-16T06:01:58.036Z,23.92
2023-04-16T06:04:26.537Z,29.10
2023-04-16T06:07:00.515Z,27.95
2023-04-16T06:09:28.915Z,24.38
2023-04-16T06:11:58.035Z,33.13
2023-04-16T06:14:26.153Z,26.75
2023-04-16T06:16:56.506Z,25.50
2023-04-16T06:19:25.142Z,25.73
2023-04-16T06:21:53.788Z,27.20
2023-04-16T06:24:22.274Z,24.35
2023-04-16T06:26:50.293Z,28.13
2023-04-16T06:29:18.375Z,25.02
2023-04-16T06:31:46.503Z,25.77
2023-04-16T06:34:16.543Z,26.27
2023-04-16T06:36:49.215Z,23.58
2023-04-16T06:39:18.638Z,23.55
2023-04-16T06:41:47.024Z,25.67
2023-04-16T06:44:15.447Z,24.95
2023-04-16T06:46:43.607Z,21.17
2023-04-16T06:49:12.032Z,32.55
2023-04-16T06:51:41.960Z,26.33
2023-04-16T06:54:10.105Z,23.98
2023-04-16T06:56:38.876Z,22.92
2023-04-16T06:59:08.577Z,23.85
2023-04-16T07:01:37.284Z,20.55
2023-04-16T07:04:06.242Z,23.13
2023-04-16T07:06:34.773Z,20.80
2023-04-16T07:09:04.636Z,20.20
2023-04-16T07:11:33.535Z,20.90
2023-04-16T07:14:01.796Z,18.10
2023-04-16T07:16:30.154Z,19.45
2023-04-16T07:18:58.296Z,21.27
2023-04-16T07:21:26.352Z,20.98
2023-04-16T07:23:54.433Z,19.25
2023-04-16T07:26:23.887Z,18.15
2023-04-16T07:28:52.043Z,21.15
2023-04-16T07:31:20.111Z,17.95
2023-04-16T07:33:48.192Z,20.73
2023-04-16T07:36:16.246Z,20.85
2023-04-16T07:38:44.299Z,19.75
2023-04-16T07:41:12.324Z,18.65
2023-04-16T07:43:41.738Z,19.33
2023-04-16T07:46:10.625Z,21.60
2023-04-16T07:48:39.560Z,19.10
2023-04-16T07:51:08.609Z,23.10
2023-04-16T07:53:37.659Z,19.90
2023-04-16T07:56:07.082Z,20.27
2023-04-16T07:58:35.690Z,23.63
2023-04-16T08:01:05.715Z,20.02
2023-04-16T08:03:34.242Z,23.95
2023-04-16T08:06:06.042Z,21.80
2023-04-16T08:08:49.744Z,24.73
2023-04-16T08:11:25.730Z,21.17
2023-04-16T08:16:39.375Z,25.70
2023-04-16T08:19:13.392Z,16.05
2023-04-16T08:21:50.957Z,26.38
2023-04-16T08:24:30.837Z,26.70
2023-04-16T08:27:15.407Z,26.00
2023-04-16T08:29:50.216Z,24.88
2023-04-16T08:32:29.570Z,24.55
2023-04-16T08:35:03.136Z,24.00
2023-04-16T08:37:34.361Z,23.58
2023-04-16T08:40:04.875Z,26.60
2023-04-16T08:42:43.651Z,27.10
2023-04-16T08:45:17.824Z,23.05
2023-04-16T08:47:49.106Z,23.17
2023-04-16T08:50:20.701Z,27.20
2023-04-16T08:52:56.649Z,26.42
2023-04-16T08:57:59.679Z,27.77
2023-04-16T09:00:31.759Z,21.55
2023-04-16T09:03:07.034Z,24.15
2023-04-16T09:05:42.014Z,22.38
2023-04-16T09:08:20.421Z,26.42
2023-04-16T09:10:55.683Z,26.73
2023-04-16T09:13:32.646Z,21.45
2023-04-16T09:16:11.572Z,26.40
2023-04-16T09:18:48.035Z,23.45
2023-04-16T09:21:32.506Z,25.02
2023-04-16T09:24:07.851Z,27.30
2023-04-16T09:26:52.028Z,23.30
2023-04-16T09:29:57.575Z,22.95
2023-04-16T09:32:35.438Z,26.52
2023-04-16T09:35:07.859Z,25.65
2023-04-16T09:37:52.364Z,26.10
2023-04-16T09:40:23.397Z,24.95
2023-04-16T09:42:51.696Z,26.48
2023-04-16T09:45:19.811Z,27.42
2023-04-16T09:47:47.967Z,23.58
2023-04-16T09:50:18.925Z,26.58
2023-04-16T09:52:49.854Z,22.58
2023-04-16T09:55:19.240Z,19.67
2023-04-16T09:57:47.339Z,20.05
2023-04-16T10:00:19.526Z,25.13
2023-04-16T10:02:50.630Z,20.75
2023-04-16T10:05:20.925Z,22.08
2023-04-16T10:07:49.567Z,21.77
2023-04-16T10:10:17.787Z,22.77
2023-04-16T10:12:45.973Z,21.38
2023-04-16T10:15:14.042Z,20.92
2023-04-16T10:17:42.307Z,20.00
2023-04-16T10:20:10.867Z,20.65
2023-04-16T10:22:40.295Z,21.15
2023-04-16T10:25:09.131Z,20.50
2023-04-16T10:27:37.920Z,20.98
2023-04-16T10:30:06.856Z,15.65
2023-04-16T10:32:35.132Z,17.92
2023-04-16T10:35:03.247Z,17.45
2023-04-16T10:37:32.077Z,19.02
2023-04-16T10:40:01.807Z,21.77
2023-04-16T10:42:29.931Z,18.20
2023-04-16T10:45:00.984Z,17.50
2023-04-16T10:47:29.900Z,19.08
2023-04-16T10:49:58.438Z,19.13
2023-04-16T10:52:26.619Z,18.92
2023-04-16T10:54:58.927Z,20.38
2023-04-16T10:57:29.470Z,18.80
2023-04-16T10:59:59.842Z,17.70
2023-04-16T11:02:30.308Z,23.60
2023-04-16T11:04:58.673Z,23.42
2023-04-16T11:07:34.251Z,21.33
2023-04-16T11:10:04.311Z,21.75
2023-04-16T11:12:38.089Z,21.23
2023-04-16T11:15:07.588Z,23.90
2023-04-16T11:17:39.200Z,23.10
2023-04-16T11:20:18.668Z,25.50
2023-04-16T11:22:48.569Z,23.15
2023-04-16T11:25:21.242Z,24.70
2023-04-16T11:27:51.189Z,28.35
2023-04-16T11:30:19.666Z,29.10
2023-04-16T11:32:48.013Z,29.38
2023-04-16T11:35:17.266Z,24.33
2023-04-16T11:37:45.548Z,25.27
2023-04-16T11:40:14.279Z,23.48
2023-04-16T11:42:42.845Z,27.80
2023-04-16T11:45:13.575Z,26.90
2023-04-16T11:47:45.939Z,24.73
2023-04-16T11:50:22.063Z,23.90
2023-04-16T11:52:50.781Z,27.27
2023-04-16T11:55:19.183Z,31.52
2023-04-16T11:57:47.439Z,26.02
2023-04-16T12:00:18.125Z,24.27
2023-04-16T12:02:47.336Z,23.33
2023-04-16T12:05:28.689Z,28.48
2023-04-16T12:07:57.076Z,28.63
2023-04-16T12:10:26.418Z,27.67
2023-04-16T12:12:54.956Z,29.15
2023-04-16T12:15:24.749Z,27.48
2023-04-16T12:17:54.611Z,26.90
2023-04-16T12:20:22.989Z,32.85
2023-04-16T12:22:52.814Z,45.30
2023-04-16T12:25:21.199Z,38.38
2023-04-16T12:27:53.324Z,34.33
2023-04-16T12:30:24.396Z,28.75
2023-04-16T12:32:53.270Z,28.33
2023-04-16T12:35:31.264Z,31.92
2023-04-16T12:37:59.588Z,30.52
2023-04-16T12:40:27.969Z,30.27
2023-04-16T12:42:56.217Z,32.40
2023-04-16T12:45:26.235Z,31.98
2023-04-16T12:47:54.537Z,33.63
2023-04-16T12:50:22.774Z,31.27
2023-04-16T12:52:51.037Z,31.42
2023-04-16T12:55:19.612Z,34.50
2023-04-16T12:57:49.131Z,33.65
2023-04-16T13:00:17.787Z,34.30
2023-04-16T13:02:47.440Z,41.75
2023-04-16T13:05:16.689Z,31.95
2023-04-16T13:07:44.865Z,38.30
2023-04-16T13:10:13.408Z,34.58
2023-04-16T13:12:46.700Z,33.10
2023-04-16T13:15:14.883Z,34.25
2023-04-16T13:17:43.047Z,35.88
2023-04-16T13:20:13.032Z,32.08
2023-04-16T13:22:41.423Z,33.80
2023-04-16T13:25:10.654Z,35.08
2023-04-16T13:27:38.725Z,36.67
2023-04-16T13:30:08.314Z,34.08
2023-04-16T13:32:36.567Z,31.13
2023-04-16T13:35:05.204Z,37.17
2023-04-16T13:37:35.618Z,33.03
2023-04-16T13:40:03.971Z,33.92
2023-04-16T13:42:32.597Z,38.63
2023-04-16T13:45:01.492Z,35.47
2023-04-16T13:47:29.821Z,38.25
2023-04-16T13:49:58.983Z,42.30
2023-04-16T13:52:27.425Z,44.22
2023-04-16T13:54:58.910Z,38.67
2023-04-16T13:57:28.225Z,36.65
2023-04-16T13:59:56.633Z,33.75
2023-04-16T14:02:26.308Z,30.80
2023-04-16T14:04:54.854Z,35.33
2023-04-16T14:07:26.318Z,41.28
2023-04-16T14:09:54.561Z,39.78
2023-04-16T14:12:24.154Z,36.38
2023-04-16T14:14:52.343Z,33.47
2023-04-16T14:17:20.535Z,35.13
2023-04-16T14:19:48.779Z,39.95
2023-04-16T14:22:18.114Z,35.78
2023-04-16T14:24:46.352Z,36.15
2023-04-16T14:27:14.558Z,44.20
2023-04-16T14:29:46.527Z,39.85
2023-04-16T14:32:14.701Z,36.63
2023-04-16T14:34:42.982Z,37.33
2023-04-16T14:37:11.494Z,32.88
2023-04-16T14:39:39.903Z,35.63
2023-04-16T14:42:08.017Z,36.05
2023-04-16T14:44:36.307Z,38.92
2023-04-16T14:47:06.156Z,33.97
2023-04-16T14:49:34.928Z,35.85
2023-04-16T14:52:05.757Z,43.58
2023-04-16T14:54:34.411Z,36.17
2023-04-16T14:57:03.527Z,42.00
2023-04-16T14:59:32.500Z,41.35
2023-04-16T15:02:01.210Z,38.55
2023-04-16T15:04:31.531Z,45.05
2023-04-16T15:07:00.289Z,62.45
2023-04-16T15:09:28.563Z,40.35
2023-04-16T15:11:57.070Z,45.42
2023-04-16T15:14:25.344Z,38.67
2023-04-16T15:16:53.537Z,33.33
2023-04-16T15:19:21.812Z,35.45
2023-04-16T15:21:51.744Z,39.08
2023-04-16T15:24:19.980Z,39.53
2023-04-16T15:26:48.416Z,38.55
2023-04-16T15:29:17.389Z,38.88
2023-04-16T15:31:45.604Z,38.08
2023-04-16T15:34:14.338Z,34.22
2023-04-16T15:36:42.998Z,37.83
2023-04-16T15:39:12.826Z,43.83
2023-04-16T15:41:53.578Z,42.10
2023-04-16T15:44:28.011Z,42.10
2023-04-16T15:46:56.571Z,40.58
2023-04-16T15:49:24.899Z,51.00
2023-04-16T15:51:53.117Z,38.50
2023-04-16T15:54:22.861Z,38.53
2023-04-16T15:56:51.289Z,46.05
2023-04-16T15:59:19.726Z,43.90
2023-04-16T16:01:47.952Z,39.28
2023-04-16T16:04:16.471Z,45.85
2023-04-16T16:06:44.954Z,42.33
2023-04-16T16:09:13.389Z,45.10
2023-04-16T16:11:43.304Z,43.88
2023-04-16T16:14:11.849Z,48.70
2023-04-16T16:16:40.333Z,41.13
2023-04-16T16:19:08.717Z,45.40
2023-04-16T16:21:37.378Z,45.63
2023-04-16T16:24:05.807Z,42.15
2023-04-16T16:26:34.040Z,47.28
2023-04-16T16:29:03.555Z,44.30
2023-04-16T16:31:31.729Z,43.03
2023-04-16T16:33:59.926Z,40.97
2023-04-16T16:36:28.108Z,39.88
2023-04-16T16:38:57.133Z,42.53
2023-04-16T16:41:25.479Z,35.58
2023-04-16T16:43:56.191Z,47.35
2023-04-16T16:46:25.930Z,45.72
2023-04-16T16:48:54.081Z,44.58
2023-04-16T16:51:22.196Z,46.25
2023-04-16T16:53:50.287Z,37.67
2023-04-16T16:56:18.405Z,39.70
2023-04-16T16:58:46.475Z,40.13
2023-04-16T17:01:14.571Z,33.10
2023-04-16T17:03:44.349Z,37.60
2023-04-16T17:06:12.753Z,30.67
2023-04-16T17:08:41.070Z,36.63
2023-04-16T17:11:09.125Z,35.85
2023-04-16T17:13:37.269Z,38.30
2023-04-16T17:16:05.760Z,39.10
2023-04-16T17:18:33.922Z,38.85
2023-04-16T17:21:03.374Z,39.08
2023-04-16T17:23:31.469Z,38.45
2023-04-16T17:26:01.207Z,40.22
2023-04-16T17:28:29.471Z,35.92
2023-04-16T17:30:57.735Z,34.00
2023-04-16T17:33:25.991Z,32.17
2023-04-16T17:35:54.039Z,41.70
2023-04-16T17:38:23.497Z,32.03
2023-04-16T17:40:51.631Z,38.63
2023-04-16T17:43:19.732Z,37.08
2023-04-16T17:45:47.931Z,35.53
2023-04-16T17:48:16.143Z,32.78
2023-04-16T17:50:44.287Z,37.83
2023-04-16T17:53:12.392Z,35.38
2023-04-16T17:55:42.803Z,46.80
2023-04-16T17:58:10.871Z,47.88
2023-04-16T18:00:38.959Z,44.72
2023-04-16T18:03:09.783Z,46.78
2023-04-16T18:05:38.125Z,44.47
2023-04-16T18:08:06.604Z,45.35
2023-04-16T18:10:34.680Z,42.92
2023-04-16T18:13:04.092Z,37.03
2023-04-16T18:15:32.182Z,41.97
2023-04-16T18:18:00.419Z,36.58
2023-04-16T18:20:28.658Z,47.70
2023-04-16T18:22:56.894Z,44.70
2023-04-16T18:25:33.980Z,33.95
2023-04-16T18:28:06.261Z,38.08
2023-04-16T18:30:34.751Z,34.90
2023-04-16T18:35:33.888Z,49.75
2023-04-16T18:38:02.314Z,48.72
2023-04-16T18:40:30.515Z,42.90
2023-04-16T18:42:58.635Z,53.58
2023-04-16T18:45:28.494Z,56.65
2023-04-16T18:47:58.809Z,53.08
2023-04-16T18:50:29.135Z,95.10
2023-04-16T18:52:57.278Z,56.67
2023-04-16T18:55:25.445Z,52.30
2023-04-16T18:57:55.050Z,47.85
2023-04-16T19:00:23.414Z,46.97
2023-04-16T19:02:52.957Z,40.50
2023-04-16T19:05:21.744Z,40.25
2023-04-16T19:07:49.813Z,42.17
2023-04-16T19:10:18.006Z,43.42
2023-04-16T19:12:46.100Z,43.80
2023-04-16T19:15:14.864Z,42.65
2023-04-16T19:17:42.990Z,36.47
2023-04-16T19:20:12.907Z,39.67
2023-04-16T19:22:41.257Z,41.80
2023-04-16T19:25:10.396Z,40.88
2023-04-16T19:27:38.469Z,42.35
2023-04-16T19:30:07.848Z,48.10
2023-04-16T19:32:36.500Z,40.33
2023-04-16T19:35:04.960Z,41.63
2023-04-16T19:37:34.450Z,50.63
2023-04-16T19:40:02.698Z,45.17
2023-04-16T19:42:30.976Z,47.10
2023-04-16T19:44:59.124Z,46.88
2023-04-16T19:47:27.918Z,47.55
2023-04-16T19:49:56.201Z,49.63
2023-04-16T19:52:24.432Z,49.55
2023-04-16T19:54:56.721Z,54.88
2023-04-16T19:57:24.806Z,52.47
2023-04-16T19:59:54.663Z,47.55
2023-04-16T20:02:23.350Z,53.70
2023-04-16T20:04:53.112Z,49.83
2023-04-16T20:07:21.416Z,48.58
2023-04-16T20:09:49.686Z,47.97
2023-04-16T20:12:19.380Z,51.28
2023-04-16T20:14:48.307Z,45.42
2023-04-16T20:17:18.671Z,51.00
2023-04-16T20:19:49.671Z,39.10
2023-04-16T20:22:18.858Z,43.15
2023-04-16T20:24:48.373Z,38.58
2023-04-16T20:27:19.502Z,34.95
2023-04-16T20:29:47.620Z,39.83
2023-04-16T20:32:15.687Z,36.17
2023-04-16T20:34:43.799Z,35.45
2023-04-16T20:37:11.844Z,35.88
2023-04-16T20:39:40.663Z,40.65
2023-04-16T20:42:10.245Z,42.70
2023-04-16T20:44:41.303Z,39.60
2023-04-16T20:47:09.679Z,45.03
2023-04-16T20:49:38.433Z,37.03
2023-04-16T20:52:07.464Z,45.28
2023-04-16T20:54:35.632Z,46.10
2023-04-16T20:57:04.835Z,47.45
2023-04-16T20:59:33.193Z,40.58
2023-04-16T21:02:02.941Z,43.33
2023-04-16T21:04:31.784Z,47.58
2023-04-16T21:07:03.199Z,46.10
2023-04-16T21:09:31.580Z,42.22
2023-04-16T21:11:59.656Z,44.58
2023-04-16T21:14:27.861Z,36.90
2023-04-16T21:16:55.967Z,41.95
2023-04-16T21:19:25.445Z,37.88
2023-04-16T21:21:53.574Z,33.67
2023-04-16T21:24:21.674Z,38.75
2023-04-16T21:26:49.742Z,37.38
2023-04-16T21:29:17.991Z,37.83
2023-04-16T21:31:46.165Z,37.47
2023-04-16T21:34:14.390Z,36.50
2023-04-16T21:36:43.815Z,42.78
2023-04-16T21:39:12.271Z,40.70
2023-04-16T21:41:40.639Z,45.28
2023-04-16T21:44:08.774Z,44.63
2023-04-16T21:46:36.929Z,38.95
2023-04-16T21:49:05.051Z,40.20
2023-04-16T21:51:33.275Z,45.67
2023-04-16T21:54:02.738Z,44.00
2023-04-16T21:56:30.849Z,45.78
2023-04-16T21:58:58.958Z,45.22
2023-04-16T22:01:27.327Z,47.80
2023-04-16T22:03:55.788Z,37.65
2023-04-16T22:06:24.003Z,42.90
2023-04-16T22:08:53.500Z,49.58
2023-04-16T22:11:23.143Z,41.55
2023-04-16T22:13:51.910Z,39.67
2023-04-16T22:16:20.092Z,38.80
2023-04-16T22:18:48.483Z,41.75
2023-04-16T22:21:16.592Z,45.42
2023-04-16T22:23:44.746Z,41.95
2023-04-16T22:26:13.036Z,43.55
2023-04-16T22:28:42.476Z,46.45
2023-04-16T22:31:10.574Z,44.17
2023-04-16T22:33:38.658Z,41.10
2023-04-16T22:36:07.811Z,43.10
2023-04-16T22:38:36.994Z,47.28
2023-04-16T22:41:05.139Z,42.53
2023-04-16T22:43:35.005Z,41.40
2023-04-16T22:46:06.595Z,43.05
2023-04-16T22:48:36.317Z,45.35
2023-04-16T22:51:04.442Z,42.42
2023-04-16T22:53:32.633Z,43.80
2023-04-16T22:56:00.901Z,48.35
2023-04-16T22:58:29.002Z,42.42
2023-04-16T23:00:59.486Z,48.53
2023-04-16T23:03:29.330Z,44.35
2023-04-16T23:05:57.463Z,45.78
2023-04-16T23:08:25.732Z,43.03
2023-04-16T23:10:54.823Z,42.83
2023-04-16T23:13:22.989Z,44.05
2023-04-16T23:15:51.120Z,49.63
2023-04-16T23:18:19.223Z,55.38
2023-04-16T23:20:51.691Z,62.53
2023-04-16T23:23:19.819Z,54.80
2023-04-16T23:25:47.912Z,55.75
2023-04-16T23:28:16.009Z,50.80
2023-04-16T23:30:44.685Z,44.75
2023-04-16T23:33:12.844Z,47.60
2023-04-16T23:35:40.920Z,38.85
2023-04-16T23:38:12.848Z,40.60
2023-04-16T23:40:41.331Z,38.33
2023-04-16T23:43:09.483Z,38.80
2023-04-16T23:45:37.628Z,36.30
2023-04-16T23:48:06.034Z,32.78
2023-04-16T23:50:34.099Z,34.20
2023-04-16T23:53:02.224Z,38.08
2023-04-16T23:55:31.751Z,35.85
2023-04-16T23:57:59.832Z,35.10
